createdAt,value
2019-02-06T00:01:48.917Z,-3.30
2019-02-06T00:04:17.670Z,-3.20
2019-02-06T00:06:46.074Z,-3.20
2019-02-06T00:09:15.745Z,-3.20
2019-02-06T00:11:44.135Z,-3.20
2019-02-06T00:14:12.630Z,-3.20
2019-02-06T00:16:41.085Z,-3.20
2019-02-06T00:19:09.797Z,-3.10
2019-02-06T00:21:38.962Z,-3.10
2019-02-06T00:24:07.356Z,-3.10
2019-02-06T00:26:36.006Z,-3.00
2019-02-06T00:29:05.181Z,-3.10
2019-02-06T00:31:33.565Z,-3.20
2019-02-06T00:34:04.676Z,-3.30
2019-02-06T00:36:33.454Z,-3.40
2019-02-06T00:39:02.009Z,-3.50
2019-02-06T00:41:30.656Z,-3.60
2019-02-06T00:43:59.064Z,-3.60
2019-02-06T00:46:27.449Z,-3.60
2019-02-06T00:48:57.725Z,-3.60
2019-02-06T00:51:28.080Z,-3.60
2019-02-06T00:53:56.710Z,-3.60
2019-02-06T00:56:26.337Z,-3.70
2019-02-06T00:58:54.823Z,-3.70
2019-02-06T01:01:23.344Z,-3.70
2019-02-06T01:03:51.730Z,-3.70
2019-02-06T01:06:20.116Z,-3.70
2019-02-06T01:08:52.500Z,-3.70
2019-02-06T01:11:21.613Z,-3.70
2019-02-06T01:13:50.008Z,-3.80
2019-02-06T01:16:18.421Z,-3.80
2019-02-06T01:18:46.980Z,-3.90
2019-02-06T01:21:15.524Z,-3.90
2019-02-06T01:23:44.695Z,-4.00
2019-02-06T01:26:13.276Z,-4.00
2019-02-06T01:28:44.689Z,-4.10
2019-02-06T01:31:20.385Z,-4.20
2019-02-06T01:33:51.793Z,-4.20
2019-02-06T01:36:20.789Z,-4.20
2019-02-06T01:38:52.264Z,-4.20
2019-02-06T01:41:20.663Z,-4.20
2019-02-06T01:43:52.248Z,-4.10
2019-02-06T01:46:27.933Z,-4.20
2019-02-06T01:49:02.025Z,-4.20
2019-02-06T01:51:32.048Z,-4.20
2019-02-06T01:54:00.452Z,-4.30
2019-02-06T01:56:31.566Z,-4.30
2019-02-06T01:59:05.946Z,-4.30
2019-02-06T02:01:44.522Z,-4.30
2019-02-06T02:04:14.629Z,-4.40
2019-02-06T02:06:43.029Z,-4.50
2019-02-06T02:09:13.316Z,-4.50
2019-02-06T02:11:43.352Z,-4.50
2019-02-06T02:14:15.996Z,-4.60
2019-02-06T02:16:47.976Z,-4.50
2019-02-06T02:19:16.426Z,-4.20
2019-02-06T02:21:45.081Z,-4.20
2019-02-06T02:24:15.883Z,-4.30
2019-02-06T02:26:44.273Z,-4.30
2019-02-06T02:29:13.981Z,-4.30
2019-02-06T02:31:44.666Z,-4.40
2019-02-06T02:34:19.221Z,-4.50
2019-02-06T02:36:48.622Z,-4.60
2019-02-06T02:39:22.430Z,-4.70
2019-02-06T02:41:57.348Z,-4.70
2019-02-06T02:44:27.595Z,-4.60
2019-02-06T02:46:59.140Z,-4.40
2019-02-06T02:49:30.890Z,-4.40
2019-02-06T02:52:02.445Z,-4.40
2019-02-06T02:54:30.861Z,-4.40
2019-02-06T02:57:06.196Z,-4.40
2019-02-06T02:59:34.868Z,-4.40
2019-02-06T03:02:10.953Z,-4.40
2019-02-06T03:04:45.586Z,-4.40
2019-02-06T03:07:19.845Z,-4.40
2019-02-06T03:09:49.890Z,-4.30
2019-02-06T03:12:19.920Z,-4.30
2019-02-06T03:14:51.462Z,-4.30
2019-02-06T03:17:21.488Z,-4.40
2019-02-06T03:19:49.892Z,-4.50
2019-02-06T03:22:19.073Z,-4.60
2019-02-06T03:24:50.177Z,-4.60
2019-02-06T03:27:18.802Z,-4.50
2019-02-06T03:29:54.416Z,-4.40
2019-02-06T03:32:25.808Z,-4.40
2019-02-06T03:34:58.781Z,-4.30
2019-02-06T03:37:27.184Z,-4.30
2019-02-06T03:39:55.675Z,-4.20
2019-02-06T03:42:29.816Z,-4.30
2019-02-06T03:44:59.849Z,-4.40
2019-02-06T03:47:31.227Z,-4.50
2019-02-06T03:49:59.658Z,-4.60
2019-02-06T03:52:43.057Z,-4.60
2019-02-06T03:55:15.885Z,-4.60
2019-02-06T03:57:45.190Z,-4.60
2019-02-06T04:00:22.837Z,-4.70
2019-02-06T04:02:55.862Z,-4.80
2019-02-06T04:05:24.408Z,-4.80
2019-02-06T04:07:54.113Z,-4.90
2019-02-06T04:10:24.198Z,-4.90
2019-02-06T04:12:58.502Z,-5.00
2019-02-06T04:15:26.937Z,-5.10
2019-02-06T04:18:00.864Z,-5.00
2019-02-06T04:20:29.246Z,-5.00
2019-02-06T04:23:05.266Z,-5.00
2019-02-06T04:25:36.999Z,-5.00
2019-02-06T04:28:06.854Z,-5.10
2019-02-06T04:30:36.961Z,-5.20
2019-02-06T04:33:09.719Z,-5.30
2019-02-06T04:35:38.329Z,-5.30
2019-02-06T04:38:08.372Z,-5.40
2019-02-06T04:40:39.225Z,-5.40
2019-02-06T04:43:07.625Z,-5.30
2019-02-06T04:45:36.017Z,-5.30
2019-02-06T04:48:09.990Z,-5.30
2019-02-06T04:50:38.450Z,-5.30
2019-02-06T04:53:09.781Z,-5.30
2019-02-06T04:55:38.174Z,-5.30
2019-02-06T04:58:09.252Z,-5.40
2019-02-06T05:00:37.685Z,-5.40
2019-02-06T05:03:16.911Z,-5.40
2019-02-06T05:05:54.083Z,-5.30
2019-02-06T05:08:27.108Z,-5.20
2019-02-06T05:10:57.383Z,-5.20
2019-02-06T05:13:34.669Z,-5.20
2019-02-06T05:16:04.704Z,-5.20
2019-02-06T05:18:35.612Z,-5.30
2019-02-06T05:21:06.674Z,-5.30
2019-02-06T05:23:36.354Z,-5.40
2019-02-06T05:26:09.202Z,-5.40
2019-02-06T05:28:39.485Z,-5.40
2019-02-06T05:31:13.660Z,-5.40
2019-02-06T05:33:54.253Z,-5.30
2019-02-06T05:36:15.909Z,-5.30
2019-02-06T05:38:44.301Z,-5.20
2019-02-06T05:41:12.751Z,-5.10
2019-02-06T05:43:45.618Z,-5.00
2019-02-06T05:46:17.590Z,-4.90
2019-02-06T05:48:49.486Z,-4.90
2019-02-06T05:51:27.539Z,-4.90
2019-02-06T05:54:04.607Z,-5.00
2019-02-06T05:56:33.938Z,-4.90
2019-02-06T05:59:02.423Z,-4.90
2019-02-06T06:01:32.698Z,-4.80
2019-02-06T06:04:02.736Z,-4.70
2019-02-06T06:06:36.871Z,-4.70
2019-02-06T06:09:15.517Z,-4.70
2019-02-06T06:11:46.886Z,-4.70
2019-02-06T06:14:19.698Z,-4.80
2019-02-06T06:16:50.730Z,-4.80
2019-02-06T06:19:20.774Z,-4.90
2019-02-06T06:21:52.141Z,-5.00
2019-02-06T06:24:20.810Z,-4.90
2019-02-06T06:26:49.210Z,-4.80
2019-02-06T06:29:28.342Z,-4.70
2019-02-06T06:31:47.732Z,-4.60
2019-02-06T06:34:16.126Z,-4.60
2019-02-06T06:36:46.187Z,-4.70
2019-02-06T06:39:14.655Z,-4.70
2019-02-06T06:41:47.373Z,-4.70
2019-02-06T06:44:15.760Z,-4.60
2019-02-06T06:46:47.202Z,-4.60
2019-02-06T06:49:19.822Z,-4.50
2019-02-06T06:51:53.572Z,-4.40
2019-02-06T06:54:23.948Z,-4.40
2019-02-06T06:56:52.672Z,-4.40
2019-02-06T06:59:21.087Z,-4.40
2019-02-06T07:01:49.528Z,-4.30
2019-02-06T07:04:17.921Z,-4.30
2019-02-06T07:06:46.566Z,-4.30
2019-02-06T07:09:15.798Z,-4.20
2019-02-06T07:11:44.421Z,-4.20
2019-02-06T07:14:12.825Z,-4.20
2019-02-06T07:16:41.223Z,-4.20
2019-02-06T07:19:10.517Z,-4.20
2019-02-06T07:21:38.904Z,-4.10
2019-02-06T07:24:08.656Z,-4.00
2019-02-06T07:26:42.644Z,-4.00
2019-02-06T07:29:11.041Z,-3.90
2019-02-06T07:31:42.401Z,-3.80
2019-02-06T07:34:11.036Z,-3.70
2019-02-06T07:36:39.758Z,-3.60
2019-02-06T07:39:15.743Z,-3.50
2019-02-06T07:41:47.187Z,-3.30
2019-02-06T07:44:15.566Z,-3.20
2019-02-06T07:46:45.457Z,-3.10
2019-02-06T07:49:19.381Z,-3.10
2019-02-06T07:51:50.436Z,-3.00
2019-02-06T07:54:20.492Z,-3.00
2019-02-06T07:56:51.773Z,-2.90
2019-02-06T07:59:20.173Z,-2.80
2019-02-06T08:01:48.625Z,-2.70
2019-02-06T08:04:17.021Z,-2.60
2019-02-06T08:06:48.031Z,-2.50
2019-02-06T08:09:17.328Z,-2.50
2019-02-06T08:11:51.447Z,-2.40
2019-02-06T08:14:23.002Z,-2.20
2019-02-06T08:16:54.303Z,-2.00
2019-02-06T08:19:22.689Z,-1.90
2019-02-06T08:21:51.082Z,-1.70
2019-02-06T08:24:21.113Z,-1.60
2019-02-06T08:26:49.512Z,-1.50
2019-02-06T08:29:20.595Z,-1.30
2019-02-06T08:31:56.562Z,-1.30
2019-02-06T08:34:25.376Z,-1.20
2019-02-06T08:36:55.404Z,-1.20
2019-02-06T08:39:23.810Z,-1.30
2019-02-06T08:41:55.586Z,-1.30
2019-02-06T08:44:25.753Z,-1.30
2019-02-06T08:46:54.231Z,-1.20
2019-02-06T08:49:24.330Z,-1.00
2019-02-06T08:51:52.728Z,-0.90
2019-02-06T08:54:21.129Z,-0.70
2019-02-06T08:56:49.530Z,-0.60
2019-02-06T08:59:17.916Z,-0.40
2019-02-06T09:01:50.673Z,-0.20
2019-02-06T09:04:25.478Z,-0.10
2019-02-06T09:06:53.864Z,0.00
2019-02-06T09:09:22.252Z,0.00
2019-02-06T09:11:56.405Z,0.00
2019-02-06T09:14:29.584Z,0.10
2019-02-06T09:17:02.307Z,0.10
2019-02-06T09:19:35.884Z,0.30
2019-02-06T09:22:07.354Z,0.30
2019-02-06T09:24:40.047Z,0.50
2019-02-06T09:27:11.166Z,0.80
2019-02-06T09:29:51.777Z,1.00
2019-02-06T09:32:20.171Z,1.20
2019-02-06T09:34:54.743Z,1.40
2019-02-06T09:37:23.143Z,1.50
2019-02-06T09:39:51.536Z,1.60
2019-02-06T09:42:24.810Z,1.60
2019-02-06T09:44:57.033Z,1.60
2019-02-06T09:47:25.429Z,1.80
2019-02-06T09:49:56.766Z,1.80
2019-02-06T09:52:28.531Z,1.90
2019-02-06T09:54:59.851Z,1.90
2019-02-06T09:57:35.543Z,1.80
2019-02-06T10:00:06.929Z,1.70
2019-02-06T10:02:38.223Z,1.90
2019-02-06T10:05:09.693Z,1.90
2019-02-06T10:07:39.061Z,2.20
2019-02-06T10:10:20.039Z,2.60
2019-02-06T10:12:49.190Z,3.10
2019-02-06T10:15:23.888Z,3.50
2019-02-06T10:17:55.884Z,3.90
2019-02-06T10:20:30.054Z,4.60
2019-02-06T10:22:59.173Z,5.10
2019-02-06T10:25:36.837Z,6.00
2019-02-06T10:28:07.217Z,6.60
2019-02-06T10:30:41.934Z,7.80
2019-02-06T10:33:13.146Z,8.30
2019-02-06T10:35:42.304Z,8.10
2019-02-06T10:38:11.426Z,7.60
2019-02-06T10:40:45.504Z,7.30
2019-02-06T10:43:16.293Z,6.80
2019-02-06T10:45:47.794Z,6.40
2019-02-06T10:48:17.771Z,5.80
2019-02-06T10:50:51.112Z,5.70
2019-02-06T10:53:31.786Z,6.00
2019-02-06T10:56:02.254Z,5.90
2019-02-06T10:58:33.534Z,5.70
2019-02-06T11:01:08.294Z,6.10
2019-02-06T11:03:39.627Z,6.60
2019-02-06T11:06:10.426Z,6.70
2019-02-06T11:08:40.660Z,6.50
2019-02-06T11:11:14.722Z,6.40
2019-02-06T11:13:43.193Z,6.80
2019-02-06T11:16:14.629Z,6.50
2019-02-06T11:18:45.989Z,7.10
2019-02-06T11:21:17.532Z,7.20
2019-02-06T11:23:46.348Z,7.40
2019-02-06T11:26:14.728Z,7.20
2019-02-06T11:28:43.128Z,7.10
2019-02-06T11:31:18.644Z,7.60
2019-02-06T11:33:47.101Z,8.60
2019-02-06T11:36:24.174Z,8.80
2019-02-06T11:38:54.361Z,9.10
2019-02-06T11:41:26.465Z,9.00
2019-02-06T11:43:55.111Z,8.40
2019-02-06T11:46:25.138Z,8.40
2019-02-06T11:48:54.414Z,8.60
2019-02-06T11:51:24.516Z,8.30
2019-02-06T11:53:55.757Z,8.40
2019-02-06T11:56:29.946Z,8.70
2019-02-06T11:59:07.150Z,9.10
2019-02-06T12:01:37.899Z,9.90
2019-02-06T12:04:12.400Z,10.50
2019-02-06T12:06:41.471Z,10.30
2019-02-06T12:09:15.782Z,10.40
2019-02-06T12:11:47.096Z,10.00
2019-02-06T12:14:16.377Z,10.50
2019-02-06T12:16:46.404Z,11.40
2019-02-06T12:19:17.526Z,11.10
2019-02-06T12:21:50.476Z,10.70
2019-02-06T12:24:19.940Z,10.60
2019-02-06T12:26:53.904Z,10.50
2019-02-06T12:29:33.977Z,10.50
2019-02-06T12:32:02.371Z,10.20
2019-02-06T12:34:30.789Z,10.70
2019-02-06T12:37:08.204Z,10.60
2019-02-06T12:39:40.564Z,10.00
2019-02-06T12:42:14.886Z,9.70
2019-02-06T12:44:43.288Z,9.00
2019-02-06T12:47:11.676Z,8.70
2019-02-06T12:49:42.713Z,8.60
2019-02-06T12:52:11.178Z,8.60
2019-02-06T12:54:39.800Z,8.60
2019-02-06T12:57:09.054Z,8.50
2019-02-06T12:59:43.535Z,8.60
2019-02-06T13:02:11.901Z,8.50
2019-02-06T13:04:40.304Z,8.40
2019-02-06T13:07:10.577Z,8.30
2019-02-06T13:09:40.616Z,8.60
2019-02-06T13:12:15.876Z,9.40
2019-02-06T13:14:47.351Z,9.70
2019-02-06T13:17:15.834Z,9.30
2019-02-06T13:19:46.030Z,9.30
2019-02-06T13:22:16.083Z,9.60
2019-02-06T13:24:44.974Z,9.50
2019-02-06T13:27:13.598Z,9.70
2019-02-06T13:29:50.559Z,9.10
2019-02-06T13:32:19.000Z,8.70
2019-02-06T13:34:49.301Z,8.50
2019-02-06T13:37:17.733Z,9.10
2019-02-06T13:39:46.417Z,9.60
2019-02-06T13:42:14.828Z,10.60
2019-02-06T13:44:43.222Z,10.90
2019-02-06T13:47:12.110Z,10.90
2019-02-06T13:49:40.510Z,10.20
2019-02-06T13:52:08.896Z,9.30
2019-02-06T13:54:46.429Z,8.30
2019-02-06T13:57:14.837Z,7.60
2019-02-06T13:59:44.865Z,6.90
2019-02-06T14:02:17.002Z,6.60
2019-02-06T14:04:45.485Z,6.40
2019-02-06T14:07:24.501Z,6.40
2019-02-06T14:09:49.741Z,6.60
2019-02-06T14:12:20.033Z,6.50
2019-02-06T14:14:52.143Z,6.40
2019-02-06T14:17:22.145Z,6.40
2019-02-06T14:19:50.765Z,6.40
2019-02-06T14:22:24.766Z,6.40
2019-02-06T14:24:53.150Z,6.50
2019-02-06T14:27:44.165Z,6.50
2019-02-06T14:30:47.600Z,6.50
2019-02-06T14:33:30.577Z,6.40
2019-02-06T14:36:22.825Z,6.40
2019-02-06T14:38:54.290Z,6.30
2019-02-06T14:41:40.733Z,6.30
2019-02-06T14:44:41.081Z,6.20
2019-02-06T14:47:27.641Z,6.20
2019-02-06T14:50:01.812Z,6.20
2019-02-06T14:52:49.785Z,6.10
2019-02-06T14:55:42.025Z,6.00
2019-02-06T14:58:34.217Z,5.90
2019-02-06T15:01:21.029Z,5.90
2019-02-06T15:04:07.725Z,5.90
2019-02-06T15:06:45.557Z,5.80
2019-02-06T15:09:42.186Z,5.90
2019-02-06T15:12:30.424Z,5.90
2019-02-06T15:15:24.140Z,5.90
2019-02-06T15:18:21.168Z,5.80
2019-02-06T15:21:13.733Z,5.70
2019-02-06T15:23:48.114Z,5.70
2019-02-06T15:26:45.510Z,5.80
2019-02-06T15:29:37.967Z,6.00
2019-02-06T15:32:28.014Z,6.20
2019-02-06T15:35:15.896Z,6.20
2019-02-06T15:38:10.196Z,5.90
2019-02-06T15:40:56.047Z,5.60
2019-02-06T15:43:45.523Z,5.20
2019-02-06T15:46:36.531Z,5.00
2019-02-06T15:49:32.284Z,4.80
2019-02-06T15:52:24.013Z,4.60
2019-02-06T15:55:13.898Z,4.50
2019-02-06T15:57:51.165Z,4.50
2019-02-06T16:00:34.270Z,4.40
2019-02-06T16:03:23.045Z,4.20
2019-02-06T16:05:56.149Z,4.10
2019-02-06T16:08:48.397Z,3.80
2019-02-06T16:11:42.418Z,3.50
2019-02-06T16:14:19.289Z,3.20
2019-02-06T16:17:10.673Z,3.00
2019-02-06T16:20:17.462Z,2.80
2019-02-06T16:22:59.346Z,2.70
2019-02-06T16:25:39.601Z,2.50
2019-02-06T16:28:16.669Z,2.30
2019-02-06T16:30:51.289Z,2.00
2019-02-06T16:33:54.737Z,1.70
2019-02-06T16:36:37.162Z,1.40
2019-02-06T16:39:28.348Z,1.00
2019-02-06T16:42:09.037Z,0.80
2019-02-06T16:44:54.203Z,0.60
2019-02-06T16:47:31.553Z,0.40
2019-02-06T16:50:14.850Z,0.30
2019-02-06T16:53:04.445Z,0.10
2019-02-06T16:55:50.432Z,0.10
2019-02-06T16:58:27.637Z,0.10
2019-02-06T17:01:01.815Z,0.00
2019-02-06T17:03:35.978Z,0.00
2019-02-06T17:06:13.249Z,0.00
2019-02-06T17:09:12.328Z,-0.10
2019-02-06T17:11:49.034Z,-0.10
2019-02-06T17:14:40.547Z,-0.20
2019-02-06T17:17:24.194Z,-0.30
2019-02-06T17:19:58.273Z,-0.40
2019-02-06T17:22:41.887Z,-0.40
2019-02-06T17:25:39.579Z,-0.40
2019-02-06T17:28:23.266Z,-0.50
2019-02-06T17:31:06.793Z,-0.60
2019-02-06T17:33:55.582Z,-0.70
2019-02-06T17:36:46.465Z,-0.70
2019-02-06T17:39:32.701Z,-0.70
2019-02-06T17:42:22.397Z,-0.60
2019-02-06T17:44:53.856Z,-0.70
2019-02-06T17:47:29.063Z,-0.80
2019-02-06T17:50:15.469Z,-1.00
2019-02-06T17:53:00.558Z,-1.00
2019-02-06T17:55:31.984Z,-1.00
2019-02-06T17:58:00.700Z,-0.90
2019-02-06T18:00:50.263Z,-1.00
2019-02-06T18:03:18.657Z,-1.00
2019-02-06T18:05:49.562Z,-1.10
2019-02-06T18:08:17.949Z,-1.10
2019-02-06T18:10:46.346Z,-1.10
2019-02-06T18:13:22.339Z,-1.10
2019-02-06T18:15:54.337Z,-1.10
2019-02-06T18:18:23.592Z,-1.10
2019-02-06T18:20:54.768Z,-1.10
2019-02-06T18:23:24.869Z,-1.20
2019-02-06T18:26:05.487Z,-1.20
2019-02-06T18:28:33.881Z,-1.30
2019-02-06T18:31:05.272Z,-1.30
2019-02-06T18:33:36.777Z,-1.50
2019-02-06T18:36:06.796Z,-1.50
2019-02-06T18:38:46.229Z,-1.60
2019-02-06T18:41:10.029Z,-1.70
2019-02-06T18:43:39.211Z,-1.80
2019-02-06T18:46:08.436Z,-1.80
2019-02-06T18:48:39.845Z,-1.80
2019-02-06T18:51:10.744Z,-1.80
2019-02-06T18:53:40.916Z,-1.80
2019-02-06T18:56:10.074Z,-1.90
2019-02-06T18:58:38.473Z,-1.90
2019-02-06T19:01:12.994Z,-2.00
2019-02-06T19:03:44.576Z,-1.90
2019-02-06T19:06:13.320Z,-1.90
2019-02-06T19:08:45.321Z,-1.90
2019-02-06T19:11:13.800Z,-1.80
2019-02-06T19:13:45.607Z,-1.70
2019-02-06T19:16:13.981Z,-1.60
2019-02-06T19:18:42.444Z,-1.60
2019-02-06T19:21:16.205Z,-1.70
2019-02-06T19:23:53.471Z,-1.80
2019-02-06T19:26:23.586Z,-2.00
2019-02-06T19:28:54.897Z,-2.10
2019-02-06T19:31:26.315Z,-2.20
2019-02-06T19:33:55.038Z,-2.30
2019-02-06T19:36:26.937Z,-2.30
2019-02-06T19:38:58.077Z,-2.40
2019-02-06T19:41:26.761Z,-2.40
2019-02-06T19:43:56.817Z,-2.50
2019-02-06T19:46:26.737Z,-2.60
2019-02-06T19:48:58.136Z,-2.70
2019-02-06T19:51:30.079Z,-2.80
2019-02-06T19:54:00.122Z,-2.80
2019-02-06T19:56:31.537Z,-2.80
2019-02-06T19:59:04.206Z,-2.50
2019-02-06T20:01:38.294Z,-2.50
2019-02-06T20:04:09.121Z,-2.60
2019-02-06T20:06:45.595Z,-2.70
2019-02-06T20:09:16.854Z,-2.80
2019-02-06T20:11:46.162Z,-2.80
2019-02-06T20:14:14.557Z,-2.90
2019-02-06T20:16:43.971Z,-2.80
2019-02-06T20:19:17.104Z,-2.60
2019-02-06T20:21:48.020Z,-2.60
2019-02-06T20:24:19.430Z,-2.70
2019-02-06T20:26:48.408Z,-2.80
2019-02-06T20:29:16.794Z,-2.80
2019-02-06T20:31:46.837Z,-2.90
2019-02-06T20:34:15.310Z,-3.00
2019-02-06T20:36:45.134Z,-3.10
2019-02-06T20:39:13.781Z,-3.20
2019-02-06T20:41:42.422Z,-3.20
2019-02-06T20:44:11.061Z,-3.30
2019-02-06T20:46:39.783Z,-3.30
2019-02-06T20:49:08.188Z,-3.30
2019-02-06T20:51:37.249Z,-3.40
2019-02-06T20:54:06.888Z,-3.40
2019-02-06T20:56:37.158Z,-3.40
2019-02-06T20:59:05.633Z,-3.30
2019-02-06T21:01:34.042Z,-3.30
2019-02-06T21:04:05.639Z,-3.30
2019-02-06T21:06:40.937Z,-3.30
2019-02-06T21:09:12.162Z,-3.40
2019-02-06T21:11:43.281Z,-3.40
2019-02-06T21:14:14.152Z,-3.50
2019-02-06T21:16:48.181Z,-3.60
2019-02-06T21:19:22.225Z,-3.70
2019-02-06T21:22:05.150Z,-3.60
2019-02-06T21:24:36.373Z,-3.50
2019-02-06T21:27:09.328Z,-3.50
2019-02-06T21:29:39.177Z,-3.50
2019-02-06T21:32:09.449Z,-3.40
2019-02-06T21:34:38.014Z,-3.30
2019-02-06T21:37:10.507Z,-3.30
2019-02-06T21:39:38.955Z,-3.20
2019-02-06T21:42:11.313Z,-3.20
2019-02-06T21:44:40.017Z,-3.30
2019-02-06T21:47:14.017Z,-3.40
2019-02-06T21:49:39.665Z,-3.50
2019-02-06T21:52:09.709Z,-3.60
2019-02-06T21:54:41.009Z,-3.70
2019-02-06T21:57:09.400Z,-3.80
2019-02-06T21:59:39.432Z,-3.80
2019-02-06T22:02:12.143Z,-3.90
2019-02-06T22:04:43.548Z,-3.90
2019-02-06T22:07:14.858Z,-4.00
2019-02-06T22:09:45.954Z,-4.00
2019-02-06T22:12:15.982Z,-3.90
2019-02-06T22:14:47.354Z,-3.90
2019-02-06T22:17:17.382Z,-4.00
2019-02-06T22:19:55.052Z,-3.90
2019-02-06T22:22:26.349Z,-3.90
2019-02-06T22:24:54.752Z,-3.90
2019-02-06T22:27:26.825Z,-3.80
2019-02-06T22:29:55.224Z,-3.70
2019-02-06T22:32:26.577Z,-3.60
2019-02-06T22:34:57.472Z,-3.40
2019-02-06T22:37:28.611Z,-3.50
2019-02-06T22:39:59.422Z,-3.50
2019-02-06T22:42:32.425Z,-3.60
2019-02-06T22:45:02.885Z,-3.70
2019-02-06T22:47:34.180Z,-3.60
2019-02-06T22:50:04.214Z,-3.60
2019-02-06T22:52:32.624Z,-3.70
2019-02-06T22:55:03.714Z,-3.70
2019-02-06T22:57:32.352Z,-3.70
2019-02-06T23:00:05.501Z,-3.80
2019-02-06T23:02:34.170Z,-3.80
2019-02-06T23:05:05.393Z,-3.80
2019-02-06T23:07:37.368Z,-3.80
2019-02-06T23:10:12.682Z,-3.70
2019-02-06T23:12:43.970Z,-3.60
2019-02-06T23:15:15.493Z,-3.50
2019-02-06T23:17:43.872Z,-3.40
2019-02-06T23:20:18.655Z,-3.40
2019-02-06T23:22:47.045Z,-3.40
2019-02-06T23:25:16.101Z,-3.40
2019-02-06T23:27:50.092Z,-3.40
2019-02-06T23:30:18.518Z,-3.30
2019-02-06T23:32:54.729Z,-3.20
2019-02-06T23:35:23.118Z,-3.00
2019-02-06T23:37:51.531Z,-2.90
2019-02-06T23:40:26.337Z,-2.90
2019-02-06T23:42:57.393Z,-2.90
2019-02-06T23:45:32.234Z,-2.80
2019-02-06T23:48:03.527Z,-2.80
2019-02-06T23:50:31.908Z,-2.70
2019-02-06T23:53:02.215Z,-2.50
2019-02-06T23:55:30.605Z,-2.50
2019-02-06T23:58:01.753Z,-2.40
